sensor_id;sensor_type;location;lat;lon;timestamp;temperature;humidity
29413;DHT22;16389;50.126;8.450;2022-09-17T00:01:48;9.70;99.90
29413;DHT22;16389;50.126;8.450;2022-09-17T00:04:13;9.70;99.90
29413;DHT22;16389;50.126;8.450;2022-09-17T00:06:39;9.70;99.90
29413;DHT22;16389;50.126;8.450;2022-09-17T00:09:06;9.80;99.90
29413;DHT22;16389;50.126;8.450;2022-09-17T00:11:35;9.70;99.90
29413;DHT22;16389;50.126;8.450;2022-09-17T00:14:02;9.80;99.90
29413;DHT22;16389;50.126;8.450;2022-09-17T00:16:36;9.80;99.90
29413;DHT22;16389;50.126;8.450;2022-09-17T00:19:04;9.70;99.90
29413;DHT22;16389;50.126;8.450;2022-09-17T00:21:30;9.80;99.90
29413;DHT22;16389;50.126;8.450;2022-09-17T00:23:58;9.80;99.90
29413;DHT22;16389;50.126;8.450;2022-09-17T00:26:25;9.80;99.90
29413;DHT22;16389;50.126;8.450;2022-09-17T00:28:53;9.80;99.90
29413;DHT22;16389;50.126;8.450;2022-09-17T00:31:19;9.70;99.90
29413;DHT22;16389;50.126;8.450;2022-09-17T00:33:45;9.70;99.90
29413;DHT22;16389;50.126;8.450;2022-09-17T00:36:10;9.70;99.90
29413;DHT22;16389;50.126;8.450;2022-09-17T00:38:36;9.70;99.90
29413;DHT22;16389;50.126;8.450;2022-09-17T00:41:03;9.70;99.90
29413;DHT22;16389;50.126;8.450;2022-09-17T00:43:41;9.60;99.90
29413;DHT22;16389;50.126;8.450;2022-09-17T00:46:37;9.60;99.90
29413;DHT22;16389;50.126;8.450;2022-09-17T00:49:17;9.60;99.90
29413;DHT22;16389;50.126;8.450;2022-09-17T00:51:58;9.60;99.90
29413;DHT22;16389;50.126;8.450;2022-09-17T00:54:26;9.50;99.90
29413;DHT22;16389;50.126;8.450;2022-09-17T00:56:51;9.50;99.90
29413;DHT22;16389;50.126;8.450;2022-09-17T00:59:18;9.40;99.90
29413;DHT22;16389;50.126;8.450;2022-09-17T01:01:45;9.50;99.90
29413;DHT22;16389;50.126;8.450;2022-09-17T01:04:23;9.40;99.90
29413;DHT22;16389;50.126;8.450;2022-09-17T01:17:42;9.40;99.90
29413;DHT22;16389;50.126;8.450;2022-09-17T01:35:00;9.60;99.90
29413;DHT22;16389;50.126;8.450;2022-09-17T01:37:56;9.70;99.90
29413;DHT22;16389;50.126;8.450;2022-09-17T01:45:42;9.90;99.90
29413;DHT22;16389;50.126;8.450;2022-09-17T01:48:15;9.90;99.90
29413;DHT22;16389;50.126;8.450;2022-09-17T01:51:08;9.90;99.90
29413;DHT22;16389;50.126;8.450;2022-09-17T01:56:55;9.90;99.90
29413;DHT22;16389;50.126;8.450;2022-09-17T01:59:29;9.90;99.90
29413;DHT22;16389;50.126;8.450;2022-09-17T02:02:13;10.00;99.90
29413;DHT22;16389;50.126;8.450;2022-09-17T02:04:47;9.90;99.90
29413;DHT22;16389;50.126;8.450;2022-09-17T02:07:18;10.00;99.90
29413;DHT22;16389;50.126;8.450;2022-09-17T02:09:57;10.00;99.90
29413;DHT22;16389;50.126;8.450;2022-09-17T02:12:29;10.00;99.90
29413;DHT22;16389;50.126;8.450;2022-09-17T02:14:58;10.10;99.90
29413;DHT22;16389;50.126;8.450;2022-09-17T02:19:54;10.20;99.90
29413;DHT22;16389;50.126;8.450;2022-09-17T02:25:05;10.10;99.90
29413;DHT22;16389;50.126;8.450;2022-09-17T02:30:19;10.20;99.90
29413;DHT22;16389;50.126;8.450;2022-09-17T02:32:45;10.30;99.90
29413;DHT22;16389;50.126;8.450;2022-09-17T02:35:11;10.20;99.90
29413;DHT22;16389;50.126;8.450;2022-09-17T02:37:40;10.20;99.90
29413;DHT22;16389;50.126;8.450;2022-09-17T02:40:06;10.30;99.90
29413;DHT22;16389;50.126;8.450;2022-09-17T02:42:59;10.40;99.90
29413;DHT22;16389;50.126;8.450;2022-09-17T02:51:22;10.30;99.90
29413;DHT22;16389;50.126;8.450;2022-09-17T02:59:39;10.30;99.90
29413;DHT22;16389;50.126;8.450;2022-09-17T03:02:32;10.30;99.90
29413;DHT22;16389;50.126;8.450;2022-09-17T03:05:00;10.30;99.90
29413;DHT22;16389;50.126;8.450;2022-09-17T03:07:27;10.40;99.90
29413;DHT22;16389;50.126;8.450;2022-09-17T03:09:53;10.30;99.90
29413;DHT22;16389;50.126;8.450;2022-09-17T03:12:19;10.40;99.90
29413;DHT22;16389;50.126;8.450;2022-09-17T03:14:44;10.40;99.90
29413;DHT22;16389;50.126;8.450;2022-09-17T03:17:11;10.40;99.90
29413;DHT22;16389;50.126;8.450;2022-09-17T03:19:37;10.40;99.90
29413;DHT22;16389;50.126;8.450;2022-09-17T03:22:02;10.40;99.90
29413;DHT22;16389;50.126;8.450;2022-09-17T03:24:28;10.40;99.90
29413;DHT22;16389;50.126;8.450;2022-09-17T03:26:54;10.40;99.90
29413;DHT22;16389;50.126;8.450;2022-09-17T03:29:19;10.40;99.90
29413;DHT22;16389;50.126;8.450;2022-09-17T03:31:45;10.40;99.90
29413;DHT22;16389;50.126;8.450;2022-09-17T03:34:11;10.40;99.90
29413;DHT22;16389;50.126;8.450;2022-09-17T03:36:36;10.40;99.90
29413;DHT22;16389;50.126;8.450;2022-09-17T03:39:03;10.30;99.90
29413;DHT22;16389;50.126;8.450;2022-09-17T03:41:28;10.30;99.90
29413;DHT22;16389;50.126;8.450;2022-09-17T03:43:54;10.30;99.90
29413;DHT22;16389;50.126;8.450;2022-09-17T03:46:20;10.30;99.90
29413;DHT22;16389;50.126;8.450;2022-09-17T03:48:45;10.20;99.90
29413;DHT22;16389;50.126;8.450;2022-09-17T03:51:11;10.20;99.90
29413;DHT22;16389;50.126;8.450;2022-09-17T03:53:37;10.10;99.90
29413;DHT22;16389;50.126;8.450;2022-09-17T03:56:04;10.20;99.90
29413;DHT22;16389;50.126;8.450;2022-09-17T03:58:32;10.20;99.90
29413;DHT22;16389;50.126;8.450;2022-09-17T04:00:57;10.10;99.90
29413;DHT22;16389;50.126;8.450;2022-09-17T04:03:24;10.10;99.90
29413;DHT22;16389;50.126;8.450;2022-09-17T04:05:50;10.10;99.90
29413;DHT22;16389;50.126;8.450;2022-09-17T04:08:15;10.10;99.90
29413;DHT22;16389;50.126;8.450;2022-09-17T04:10:42;10.10;99.90
29413;DHT22;16389;50.126;8.450;2022-09-17T04:13:08;10.00;99.90
29413;DHT22;16389;50.126;8.450;2022-09-17T04:15:34;10.10;99.90
29413;DHT22;16389;50.126;8.450;2022-09-17T04:18:00;10.00;99.90
29413;DHT22;16389;50.126;8.450;2022-09-17T04:20:26;10.00;99.90
29413;DHT22;16389;50.126;8.450;2022-09-17T04:22:52;10.10;99.90
29413;DHT22;16389;50.126;8.450;2022-09-17T04:25:17;10.00;99.90
29413;DHT22;16389;50.126;8.450;2022-09-17T04:27:44;10.00;99.90
29413;DHT22;16389;50.126;8.450;2022-09-17T04:30:10;10.00;99.90
29413;DHT22;16389;50.126;8.450;2022-09-17T04:32:36;10.00;99.90
29413;DHT22;16389;50.126;8.450;2022-09-17T04:35:03;10.10;99.90
29413;DHT22;16389;50.126;8.450;2022-09-17T04:37:29;10.10;99.90
29413;DHT22;16389;50.126;8.450;2022-09-17T04:39:54;10.00;99.90
29413;DHT22;16389;50.126;8.450;2022-09-17T04:42:20;10.10;99.90
29413;DHT22;16389;50.126;8.450;2022-09-17T04:44:45;10.10;99.90
29413;DHT22;16389;50.126;8.450;2022-09-17T04:47:11;10.10;99.90
29413;DHT22;16389;50.126;8.450;2022-09-17T04:49:37;10.10;99.90
29413;DHT22;16389;50.126;8.450;2022-09-17T04:52:02;10.10;99.90
29413;DHT22;16389;50.126;8.450;2022-09-17T04:54:28;10.10;99.90
29413;DHT22;16389;50.126;8.450;2022-09-17T04:56:53;10.10;99.90
29413;DHT22;16389;50.126;8.450;2022-09-17T04:59:19;10.10;99.90
29413;DHT22;16389;50.126;8.450;2022-09-17T05:01:45;10.20;99.90
29413;DHT22;16389;50.126;8.450;2022-09-17T05:04:10;10.20;99.90
29413;DHT22;16389;50.126;8.450;2022-09-17T05:06:36;10.20;99.90
29413;DHT22;16389;50.126;8.450;2022-09-17T05:09:02;10.20;99.90
29413;DHT22;16389;50.126;8.450;2022-09-17T05:11:28;10.20;99.90
29413;DHT22;16389;50.126;8.450;2022-09-17T05:13:53;10.10;99.90
29413;DHT22;16389;50.126;8.450;2022-09-17T05:16:19;10.10;99.90
29413;DHT22;16389;50.126;8.450;2022-09-17T05:18:45;10.10;99.90
29413;DHT22;16389;50.126;8.450;2022-09-17T05:21:10;10.10;99.90
29413;DHT22;16389;50.126;8.450;2022-09-17T05:23:36;10.10;99.90
29413;DHT22;16389;50.126;8.450;2022-09-17T05:26:02;10.10;99.90
29413;DHT22;16389;50.126;8.450;2022-09-17T05:28:28;10.10;99.90
29413;DHT22;16389;50.126;8.450;2022-09-17T05:30:53;10.10;99.90
29413;DHT22;16389;50.126;8.450;2022-09-17T05:33:19;10.20;99.90
29413;DHT22;16389;50.126;8.450;2022-09-17T05:35:45;10.20;99.90
29413;DHT22;16389;50.126;8.450;2022-09-17T05:38:11;10.20;99.90
29413;DHT22;16389;50.126;8.450;2022-09-17T05:40:36;10.30;99.90
29413;DHT22;16389;50.126;8.450;2022-09-17T05:43:05;10.30;99.90
29413;DHT22;16389;50.126;8.450;2022-09-17T05:45:35;10.30;99.90
29413;DHT22;16389;50.126;8.450;2022-09-17T05:48:03;10.30;99.90
29413;DHT22;16389;50.126;8.450;2022-09-17T05:50:29;10.30;99.90
29413;DHT22;16389;50.126;8.450;2022-09-17T05:52:55;10.30;99.90
29413;DHT22;16389;50.126;8.450;2022-09-17T05:55:22;10.30;99.90
29413;DHT22;16389;50.126;8.450;2022-09-17T05:57:48;10.30;99.90
29413;DHT22;16389;50.126;8.450;2022-09-17T06:00:15;10.30;99.90
29413;DHT22;16389;50.126;8.450;2022-09-17T06:02:40;10.30;99.90
29413;DHT22;16389;50.126;8.450;2022-09-17T06:05:06;10.30;99.90
29413;DHT22;16389;50.126;8.450;2022-09-17T06:07:35;10.30;99.90
29413;DHT22;16389;50.126;8.450;2022-09-17T06:10:01;10.40;99.90
29413;DHT22;16389;50.126;8.450;2022-09-17T06:12:26;10.40;99.90
29413;DHT22;16389;50.126;8.450;2022-09-17T06:14:52;10.50;99.90
29413;DHT22;16389;50.126;8.450;2022-09-17T06:17:18;10.60;99.90
29413;DHT22;16389;50.126;8.450;2022-09-17T06:19:43;10.70;99.90
29413;DHT22;16389;50.126;8.450;2022-09-17T06:22:09;10.90;99.90
29413;DHT22;16389;50.126;8.450;2022-09-17T06:24:34;10.90;99.90
29413;DHT22;16389;50.126;8.450;2022-09-17T06:27:00;11.10;99.90
29413;DHT22;16389;50.126;8.450;2022-09-17T06:29:25;11.20;99.90
29413;DHT22;16389;50.126;8.450;2022-09-17T06:31:52;11.30;99.90
29413;DHT22;16389;50.126;8.450;2022-09-17T06:34:18;11.40;99.90
29413;DHT22;16389;50.126;8.450;2022-09-17T06:36:44;11.60;99.90
29413;DHT22;16389;50.126;8.450;2022-09-17T06:39:10;11.80;99.90
29413;DHT22;16389;50.126;8.450;2022-09-17T06:41:36;12.00;99.90
29413;DHT22;16389;50.126;8.450;2022-09-17T06:44:03;12.10;99.90
29413;DHT22;16389;50.126;8.450;2022-09-17T06:46:29;12.10;99.90
29413;DHT22;16389;50.126;8.450;2022-09-17T06:48:55;12.20;99.90
29413;DHT22;16389;50.126;8.450;2022-09-17T06:51:20;12.00;99.90
29413;DHT22;16389;50.126;8.450;2022-09-17T06:53:47;12.00;99.90
29413;DHT22;16389;50.126;8.450;2022-09-17T06:56:13;12.00;99.90
29413;DHT22;16389;50.126;8.450;2022-09-17T06:58:39;11.90;99.90
29413;DHT22;16389;50.126;8.450;2022-09-17T07:01:09;11.90;99.90
29413;DHT22;16389;50.126;8.450;2022-09-17T07:03:35;11.90;99.90
29413;DHT22;16389;50.126;8.450;2022-09-17T07:06:02;11.90;99.90
29413;DHT22;16389;50.126;8.450;2022-09-17T07:08:27;11.80;99.90
29413;DHT22;16389;50.126;8.450;2022-09-17T07:10:57;11.80;99.90
29413;DHT22;16389;50.126;8.450;2022-09-17T07:13:23;11.80;99.90
29413;DHT22;16389;50.126;8.450;2022-09-17T07:15:57;11.80;99.90
29413;DHT22;16389;50.126;8.450;2022-09-17T07:18:24;11.70;99.90
29413;DHT22;16389;50.126;8.450;2022-09-17T07:23:21;11.80;99.90
29413;DHT22;16389;50.126;8.450;2022-09-17T07:25:51;11.90;99.90
29413;DHT22;16389;50.126;8.450;2022-09-17T07:28:17;12.10;99.90
29413;DHT22;16389;50.126;8.450;2022-09-17T07:30:42;12.40;99.90
29413;DHT22;16389;50.126;8.450;2022-09-17T07:33:08;12.60;99.90
29413;DHT22;16389;50.126;8.450;2022-09-17T07:35:33;12.70;99.90
29413;DHT22;16389;50.126;8.450;2022-09-17T07:37:59;12.70;99.90
29413;DHT22;16389;50.126;8.450;2022-09-17T07:40:24;12.70;99.90
29413;DHT22;16389;50.126;8.450;2022-09-17T07:42:50;12.70;99.90
29413;DHT22;16389;50.126;8.450;2022-09-17T07:45:16;12.80;99.90
29413;DHT22;16389;50.126;8.450;2022-09-17T07:47:41;12.90;99.90
29413;DHT22;16389;50.126;8.450;2022-09-17T07:50:08;12.90;99.90
29413;DHT22;16389;50.126;8.450;2022-09-17T07:52:34;12.90;99.90
29413;DHT22;16389;50.126;8.450;2022-09-17T07:55:00;12.90;99.90
29413;DHT22;16389;50.126;8.450;2022-09-17T07:57:25;12.90;99.90
29413;DHT22;16389;50.126;8.450;2022-09-17T07:59:51;12.90;99.90
29413;DHT22;16389;50.126;8.450;2022-09-17T08:02:17;12.80;99.90
29413;DHT22;16389;50.126;8.450;2022-09-17T08:04:42;12.70;99.90
29413;DHT22;16389;50.126;8.450;2022-09-17T08:07:10;12.80;99.90
29413;DHT22;16389;50.126;8.450;2022-09-17T08:09:37;12.90;99.90
29413;DHT22;16389;50.126;8.450;2022-09-17T08:12:03;13.20;99.90
29413;DHT22;16389;50.126;8.450;2022-09-17T08:14:29;13.50;99.90
29413;DHT22;16389;50.126;8.450;2022-09-17T08:16:55;13.60;99.90
29413;DHT22;16389;50.126;8.450;2022-09-17T08:19:21;13.70;99.90
29413;DHT22;16389;50.126;8.450;2022-09-17T08:21:47;13.80;99.90
29413;DHT22;16389;50.126;8.450;2022-09-17T08:24:15;14.00;99.90
29413;DHT22;16389;50.126;8.450;2022-09-17T08:26:40;14.20;99.90
29413;DHT22;16389;50.126;8.450;2022-09-17T08:29:06;14.30;99.90
29413;DHT22;16389;50.126;8.450;2022-09-17T08:31:32;14.30;99.90
29413;DHT22;16389;50.126;8.450;2022-09-17T08:33:57;14.20;99.90
29413;DHT22;16389;50.126;8.450;2022-09-17T08:36:24;14.30;99.90
29413;DHT22;16389;50.126;8.450;2022-09-17T08:38:54;14.20;99.90
29413;DHT22;16389;50.126;8.450;2022-09-17T08:44:31;14.40;99.90
29413;DHT22;16389;50.126;8.450;2022-09-17T08:47:03;14.50;99.90
29413;DHT22;16389;50.126;8.450;2022-09-17T08:49:50;14.60;99.90
29413;DHT22;16389;50.126;8.450;2022-09-17T08:55:26;14.50;99.90
29413;DHT22;16389;50.126;8.450;2022-09-17T08:58:30;14.50;99.90
29413;DHT22;16389;50.126;8.450;2022-09-17T09:06:35;15.50;99.90
29413;DHT22;16389;50.126;8.450;2022-09-17T09:09:05;15.60;99.90
29413;DHT22;16389;50.126;8.450;2022-09-17T09:11:34;15.70;99.90
29413;DHT22;16389;50.126;8.450;2022-09-17T09:16:40;15.80;99.90
29413;DHT22;16389;50.126;8.450;2022-09-17T09:19:28;16.10;99.90
29413;DHT22;16389;50.126;8.450;2022-09-17T09:22:04;16.30;99.90
29413;DHT22;16389;50.126;8.450;2022-09-17T09:27:37;16.60;99.90
29413;DHT22;16389;50.126;8.450;2022-09-17T09:30:09;16.50;99.90
29413;DHT22;16389;50.126;8.450;2022-09-17T09:35:18;15.90;99.90
29413;DHT22;16389;50.126;8.450;2022-09-17T09:40:54;15.50;99.90
29413;DHT22;16389;50.126;8.450;2022-09-17T09:43:35;15.40;99.90
29413;DHT22;16389;50.126;8.450;2022-09-17T09:56:49;14.90;99.90
29413;DHT22;16389;50.126;8.450;2022-09-17T09:59:18;14.90;99.90
29413;DHT22;16389;50.126;8.450;2022-09-17T10:01:44;14.70;99.90
29413;DHT22;16389;50.126;8.450;2022-09-17T10:04:19;14.60;99.90
29413;DHT22;16389;50.126;8.450;2022-09-17T10:06:47;14.50;99.90
29413;DHT22;16389;50.126;8.450;2022-09-17T10:09:15;14.50;99.90
29413;DHT22;16389;50.126;8.450;2022-09-17T10:11:43;14.50;99.90
29413;DHT22;16389;50.126;8.450;2022-09-17T10:14:28;14.60;99.90
29413;DHT22;16389;50.126;8.450;2022-09-17T10:19:43;14.90;99.90
29413;DHT22;16389;50.126;8.450;2022-09-17T10:24:56;15.40;99.90
29413;DHT22;16389;50.126;8.450;2022-09-17T10:27:23;15.70;99.90
29413;DHT22;16389;50.126;8.450;2022-09-17T10:30:02;15.90;99.90
29413;DHT22;16389;50.126;8.450;2022-09-17T10:32:37;15.80;99.90
29413;DHT22;16389;50.126;8.450;2022-09-17T10:35:26;15.70;99.90
29413;DHT22;16389;50.126;8.450;2022-09-17T10:37:53;15.50;99.90
29413;DHT22;16389;50.126;8.450;2022-09-17T10:42:49;15.40;99.90
29413;DHT22;16389;50.126;8.450;2022-09-17T10:45:29;15.40;99.90
29413;DHT22;16389;50.126;8.450;2022-09-17T10:47:56;15.50;99.90
29413;DHT22;16389;50.126;8.450;2022-09-17T10:50:27;15.50;99.90
29413;DHT22;16389;50.126;8.450;2022-09-17T10:53:04;15.50;99.90
29413;DHT22;16389;50.126;8.450;2022-09-17T10:55:39;15.70;99.90
29413;DHT22;16389;50.126;8.450;2022-09-17T10:58:21;15.70;99.90
29413;DHT22;16389;50.126;8.450;2022-09-17T11:12:47;17.70;99.90
29413;DHT22;16389;50.126;8.450;2022-09-17T11:21:12;17.50;99.90
29413;DHT22;16389;50.126;8.450;2022-09-17T11:23:53;17.20;99.90
29413;DHT22;16389;50.126;8.450;2022-09-17T11:35:25;19.40;99.90
29413;DHT22;16389;50.126;8.450;2022-09-17T11:38:03;19.40;99.90
29413;DHT22;16389;50.126;8.450;2022-09-17T11:40:43;18.70;99.90
29413;DHT22;16389;50.126;8.450;2022-09-17T11:43:18;17.90;99.90
29413;DHT22;16389;50.126;8.450;2022-09-17T11:51:40;17.70;99.90
29413;DHT22;16389;50.126;8.450;2022-09-17T11:56:48;20.30;99.90
29413;DHT22;16389;50.126;8.450;2022-09-17T11:59:24;21.70;96.80
29413;DHT22;16389;50.126;8.450;2022-09-17T12:01:52;22.30;96.80
29413;DHT22;16389;50.126;8.450;2022-09-17T12:07:31;23.60;93.60
29413;DHT22;16389;50.126;8.450;2022-09-17T12:13:12;22.20;92.10
29413;DHT22;16389;50.126;8.450;2022-09-17T12:15:40;20.50;94.30
29413;DHT22;16389;50.126;8.450;2022-09-17T12:20:57;18.80;99.90
29413;DHT22;16389;50.126;8.450;2022-09-17T12:23:43;19.60;99.90
29413;DHT22;16389;50.126;8.450;2022-09-17T12:26:31;20.60;99.30
29413;DHT22;16389;50.126;8.450;2022-09-17T12:29:03;21.90;98.40
29413;DHT22;16389;50.126;8.450;2022-09-17T12:31:34;22.90;95.00
29413;DHT22;16389;50.126;8.450;2022-09-17T12:36:54;24.50;92.40
29413;DHT22;16389;50.126;8.450;2022-09-17T12:39:44;25.30;91.20
29413;DHT22;16389;50.126;8.450;2022-09-17T12:42:30;24.90;89.30
29413;DHT22;16389;50.126;8.450;2022-09-17T12:45:13;25.00;90.00
29413;DHT22;16389;50.126;8.450;2022-09-17T12:59:16;26.90;78.90
29413;DHT22;16389;50.126;8.450;2022-09-17T13:02:03;27.30;77.50
29413;DHT22;16389;50.126;8.450;2022-09-17T13:05:00;27.70;76.80
29413;DHT22;16389;50.126;8.450;2022-09-17T13:21:51;25.20;75.40
29413;DHT22;16389;50.126;8.450;2022-09-17T13:24:23;25.90;73.60
29413;DHT22;16389;50.126;8.450;2022-09-17T13:26:51;26.60;69.50
29413;DHT22;16389;50.126;8.450;2022-09-17T13:43:17;28.80;61.00
29413;DHT22;16389;50.126;8.450;2022-09-17T13:46:04;28.50;61.90
29413;DHT22;16389;50.126;8.450;2022-09-17T13:48:36;29.00;60.30
29413;DHT22;16389;50.126;8.450;2022-09-17T13:51:43;28.50;60.80
29413;DHT22;16389;50.126;8.450;2022-09-17T13:54:10;27.40;63.20
29413;DHT22;16389;50.126;8.450;2022-09-17T13:56:44;26.20;63.60
29413;DHT22;16389;50.126;8.450;2022-09-17T14:09:59;22.20;73.60
29413;DHT22;16389;50.126;8.450;2022-09-17T14:17:58;21.10;74.60
29413;DHT22;16389;50.126;8.450;2022-09-17T14:20:24;20.20;76.50
29413;DHT22;16389;50.126;8.450;2022-09-17T14:22:56;19.40;80.00
29413;DHT22;16389;50.126;8.450;2022-09-17T14:28:33;17.70;92.20
29413;DHT22;16389;50.126;8.450;2022-09-17T14:31:10;16.50;96.20
29413;DHT22;16389;50.126;8.450;2022-09-17T14:33:41;15.70;99.90
29413;DHT22;16389;50.126;8.450;2022-09-17T14:36:10;14.90;99.90
29413;DHT22;16389;50.126;8.450;2022-09-17T14:38:41;14.70;99.90
29413;DHT22;16389;50.126;8.450;2022-09-17T14:44:28;14.60;99.90
29413;DHT22;16389;50.126;8.450;2022-09-17T14:46:58;14.60;99.90
29413;DHT22;16389;50.126;8.450;2022-09-17T14:49:26;14.80;99.90
29413;DHT22;16389;50.126;8.450;2022-09-17T14:51:54;15.40;99.90
29413;DHT22;16389;50.126;8.450;2022-09-17T14:59:57;20.50;99.90
29413;DHT22;16389;50.126;8.450;2022-09-17T15:02:40;20.50;99.90
29413;DHT22;16389;50.126;8.450;2022-09-17T15:05:32;20.40;99.90
29413;DHT22;16389;50.126;8.450;2022-09-17T15:10:38;22.60;99.90
29413;DHT22;16389;50.126;8.450;2022-09-17T15:13:13;23.80;98.30
29413;DHT22;16389;50.126;8.450;2022-09-17T15:15:39;23.60;96.30
29413;DHT22;16389;50.126;8.450;2022-09-17T15:18:15;22.70;96.60
29413;DHT22;16389;50.126;8.450;2022-09-17T15:20:41;21.40;97.60
29413;DHT22;16389;50.126;8.450;2022-09-17T15:23:18;20.20;99.30
29413;DHT22;16389;50.126;8.450;2022-09-17T15:25:49;19.00;99.90
29413;DHT22;16389;50.126;8.450;2022-09-17T15:28:37;18.10;99.90
29413;DHT22;16389;50.126;8.450;2022-09-17T15:31:05;17.10;99.90
29413;DHT22;16389;50.126;8.450;2022-09-17T15:33:33;16.50;99.90
29413;DHT22;16389;50.126;8.450;2022-09-17T15:36:13;16.20;99.90
29413;DHT22;16389;50.126;8.450;2022-09-17T15:38:41;15.90;99.90
29413;DHT22;16389;50.126;8.450;2022-09-17T15:46:36;15.00;99.90
29413;DHT22;16389;50.126;8.450;2022-09-17T15:49:02;14.50;99.90
29413;DHT22;16389;50.126;8.450;2022-09-17T15:51:31;13.90;99.90
29413;DHT22;16389;50.126;8.450;2022-09-17T15:53:59;13.60;99.90
29413;DHT22;16389;50.126;8.450;2022-09-17T15:56:36;13.30;99.90
29413;DHT22;16389;50.126;8.450;2022-09-17T15:59:23;12.90;99.90
29413;DHT22;16389;50.126;8.450;2022-09-17T16:01:52;12.60;99.90
29413;DHT22;16389;50.126;8.450;2022-09-17T16:04:22;12.40;99.90
29413;DHT22;16389;50.126;8.450;2022-09-17T16:06:55;12.30;99.90
29413;DHT22;16389;50.126;8.450;2022-09-17T16:09:54;12.40;99.90
29413;DHT22;16389;50.126;8.450;2022-09-17T16:12:24;12.30;99.90
29413;DHT22;16389;50.126;8.450;2022-09-17T16:14:52;12.20;99.90
29413;DHT22;16389;50.126;8.450;2022-09-17T16:20:13;12.10;99.90
29413;DHT22;16389;50.126;8.450;2022-09-17T16:22:40;12.00;99.90
29413;DHT22;16389;50.126;8.450;2022-09-17T16:25:07;11.90;99.90
29413;DHT22;16389;50.126;8.450;2022-09-17T16:27:45;11.80;99.90
29413;DHT22;16389;50.126;8.450;2022-09-17T16:30:18;11.70;99.90
29413;DHT22;16389;50.126;8.450;2022-09-17T16:32:45;11.60;99.90
29413;DHT22;16389;50.126;8.450;2022-09-17T16:35:19;11.60;99.90
29413;DHT22;16389;50.126;8.450;2022-09-17T16:37:51;11.60;99.90
29413;DHT22;16389;50.126;8.450;2022-09-17T16:40:21;11.50;99.90
29413;DHT22;16389;50.126;8.450;2022-09-17T16:42:47;11.50;99.90
29413;DHT22;16389;50.126;8.450;2022-09-17T16:45:13;11.50;99.90
29413;DHT22;16389;50.126;8.450;2022-09-17T16:47:40;11.50;99.90
29413;DHT22;16389;50.126;8.450;2022-09-17T16:50:09;11.40;99.90
29413;DHT22;16389;50.126;8.450;2022-09-17T16:52:35;11.40;99.90
29413;DHT22;16389;50.126;8.450;2022-09-17T16:55:01;11.40;99.90
29413;DHT22;16389;50.126;8.450;2022-09-17T16:57:29;11.40;99.90
29413;DHT22;16389;50.126;8.450;2022-09-17T16:59:55;11.40;99.90
29413;DHT22;16389;50.126;8.450;2022-09-17T17:02:20;11.30;99.90
29413;DHT22;16389;50.126;8.450;2022-09-17T17:04:46;11.20;99.90
29413;DHT22;16389;50.126;8.450;2022-09-17T17:07:12;11.20;99.90
29413;DHT22;16389;50.126;8.450;2022-09-17T17:09:38;11.10;99.90
29413;DHT22;16389;50.126;8.450;2022-09-17T17:12:04;11.00;99.90
29413;DHT22;16389;50.126;8.450;2022-09-17T17:14:30;11.00;99.90
29413;DHT22;16389;50.126;8.450;2022-09-17T17:16:57;11.00;99.90
29413;DHT22;16389;50.126;8.450;2022-09-17T17:19:24;11.00;99.90
29413;DHT22;16389;50.126;8.450;2022-09-17T17:21:52;11.00;99.90
29413;DHT22;16389;50.126;8.450;2022-09-17T17:24:19;11.00;99.90
29413;DHT22;16389;50.126;8.450;2022-09-17T17:26:46;10.90;99.90
29413;DHT22;16389;50.126;8.450;2022-09-17T17:29:12;10.80;99.90
29413;DHT22;16389;50.126;8.450;2022-09-17T17:31:39;10.80;99.90
29413;DHT22;16389;50.126;8.450;2022-09-17T17:34:04;10.80;99.90
29413;DHT22;16389;50.126;8.450;2022-09-17T17:36:30;10.80;99.90
29413;DHT22;16389;50.126;8.450;2022-09-17T17:38:57;10.70;99.90
29413;DHT22;16389;50.126;8.450;2022-09-17T17:41:23;10.60;99.90
29413;DHT22;16389;50.126;8.450;2022-09-17T17:43:54;10.60;99.90
29413;DHT22;16389;50.126;8.450;2022-09-17T17:46:20;10.50;99.90
29413;DHT22;16389;50.126;8.450;2022-09-17T17:48:48;10.50;99.90
29413;DHT22;16389;50.126;8.450;2022-09-17T17:51:14;10.40;99.90
29413;DHT22;16389;50.126;8.450;2022-09-17T17:53:42;10.40;99.90
29413;DHT22;16389;50.126;8.450;2022-09-17T17:56:10;10.30;99.90
29413;DHT22;16389;50.126;8.450;2022-09-17T17:58:37;10.20;99.90
29413;DHT22;16389;50.126;8.450;2022-09-17T18:01:20;10.10;99.90
29413;DHT22;16389;50.126;8.450;2022-09-17T18:03:46;10.10;99.90
29413;DHT22;16389;50.126;8.450;2022-09-17T18:06:12;10.00;99.90
29413;DHT22;16389;50.126;8.450;2022-09-17T18:08:40;9.90;99.90
29413;DHT22;16389;50.126;8.450;2022-09-17T18:11:07;9.90;99.90
29413;DHT22;16389;50.126;8.450;2022-09-17T18:13:35;9.80;99.90
29413;DHT22;16389;50.126;8.450;2022-09-17T18:16:03;9.80;99.90
29413;DHT22;16389;50.126;8.450;2022-09-17T18:18:34;9.80;99.90
29413;DHT22;16389;50.126;8.450;2022-09-17T18:21:05;9.80;99.90
29413;DHT22;16389;50.126;8.450;2022-09-17T18:23:36;9.80;99.90
29413;DHT22;16389;50.126;8.450;2022-09-17T18:26:04;9.70;99.90
29413;DHT22;16389;50.126;8.450;2022-09-17T18:28:30;9.80;99.90
29413;DHT22;16389;50.126;8.450;2022-09-17T18:31:02;9.70;99.90
29413;DHT22;16389;50.126;8.450;2022-09-17T18:33:28;9.70;99.90
29413;DHT22;16389;50.126;8.450;2022-09-17T18:35:59;9.60;99.90
29413;DHT22;16389;50.126;8.450;2022-09-17T18:38:25;9.50;99.90
29413;DHT22;16389;50.126;8.450;2022-09-17T18:40:51;9.50;99.90
29413;DHT22;16389;50.126;8.450;2022-09-17T18:43:17;9.50;99.90
29413;DHT22;16389;50.126;8.450;2022-09-17T18:45:51;9.40;99.90
29413;DHT22;16389;50.126;8.450;2022-09-17T18:48:16;9.50;99.90
29413;DHT22;16389;50.126;8.450;2022-09-17T18:50:42;9.50;99.90
29413;DHT22;16389;50.126;8.450;2022-09-17T18:53:07;9.50;99.90
29413;DHT22;16389;50.126;8.450;2022-09-17T18:55:33;9.50;99.90
29413;DHT22;16389;50.126;8.450;2022-09-17T18:57:59;9.50;99.90
29413;DHT22;16389;50.126;8.450;2022-09-17T19:00:26;9.40;99.90
29413;DHT22;16389;50.126;8.450;2022-09-17T19:02:51;9.40;99.90
29413;DHT22;16389;50.126;8.450;2022-09-17T19:05:17;9.40;99.90
29413;DHT22;16389;50.126;8.450;2022-09-17T19:07:44;9.40;99.90
29413;DHT22;16389;50.126;8.450;2022-09-17T19:10:10;9.40;99.90
29413;DHT22;16389;50.126;8.450;2022-09-17T19:12:36;9.40;99.90
29413;DHT22;16389;50.126;8.450;2022-09-17T19:15:02;9.40;99.90
29413;DHT22;16389;50.126;8.450;2022-09-17T19:17:28;9.40;99.90
29413;DHT22;16389;50.126;8.450;2022-09-17T19:19:53;9.40;99.90
29413;DHT22;16389;50.126;8.450;2022-09-17T19:22:19;9.40;99.90
29413;DHT22;16389;50.126;8.450;2022-09-17T19:24:45;9.30;99.90
29413;DHT22;16389;50.126;8.450;2022-09-17T19:27:10;9.30;99.90
29413;DHT22;16389;50.126;8.450;2022-09-17T19:29:36;9.30;99.90
29413;DHT22;16389;50.126;8.450;2022-09-17T19:32:01;9.20;99.90